Latest Coastal Weather Observations for Coolangatta

IDQ60701

Issued at 2:51 am EST Wednesday 28 January 2015 (issued every 10 minutes, with the page automatically refreshed every 10 minutes)

About coastal observations | Map of coastal stations | Coastal observations for QLD | Marine services | Other Formats
Station Details ID: 040717 Name: COOLANGATTA Lat: -28.17 Lon: 153.51 Height: 4.0 m
Data from the previous 72 hours. | See also: Recent months at Coolangatta
Date/Time
EST
Temp

°C
Wind Pressure Rain
since 9am
mm
Weather Cloud Vis
km
Sea
Height
m
Swell
Dir
 
Speed
knots
Gust
knots
hPa Trend Height
m
Period
s
Dir
28/02:30am 20.7 SSW 10 16 1005.8 - 0.4 - Partly cloudy 10 - - - -
28/02:00am 20.8 SSW 10 14 1006.2 - 0.4 - Partly cloudy 10 - - - -
28/01:30am 21.0 SSW 13 19 1006.7 - 0.4 - Partly cloudy 10 - - - -
28/01:00am 21.1 SSW 13 19 1007.2 - 0.0 - Cloudy 10 - - - -
28/12:30am 21.1 SSW 13 17 1007.7 - 0.0 - Partly cloudy 10 - - - -
28/12:00am 21.3 SSW 12 19 1007.9 - 0.0 - Cloudy 10 - - - -
 
Date/Time
EST
Temp

°C
Wind Pressure Rain
since 9am
mm
Weather Cloud Vis
km
Sea
Height
m
Swell
Dir
 
Speed
knots
Gust
knots
hPa Trend Height
m
Period
s
Dir
27/11:30pm 21.8 S 11 17 1008.1 - 0.0 - Partly cloudy 10 - - - -
27/11:00pm 22.4 S 10 15 1008.1 - 0.0 - Partly cloudy 9 - - - -
27/10:30pm 23.7 S 8 13 1007.7 - 0.0 - Partly cloudy 10 - - - -
27/10:00pm 24.5 SSE 9 14 1007.7 - 0.0 - Partly cloudy 10 - - - -
27/09:30pm 24.5 S 10 14 1007.8 - 0.0 - Partly cloudy 10 - - - -
27/09:00pm 24.9 SSE 11 21 1007.8 - 0.0 - Cloudy 10 - - - -
27/08:30pm 24.8 SSE 11 17 1007.4 - 0.0 - Partly cloudy 10 - - - -
27/08:00pm 25.1 SSE 12 17 1007.3 - 0.0 - Partly cloudy 10 - - - -
27/07:30pm 25.1 SE 15 19 1006.6 - 0.0 - Partly cloudy 10 - - - -
27/07:00pm 25.3 ESE 13 19 1006.6 - 0.0 - Partly cloudy 10 - - - -
27/06:30pm 25.4 ESE 11 16 1006.7 - 0.0 - Partly cloudy 10 - - - -
27/06:00pm 25.5 ESE 13 19 1006.2 - 0.0 - Cloudy 10 - - - -
27/05:30pm 25.7 ESE 12 16 1005.9 - 0.0 - Partly cloudy 10 - - - -
27/05:00pm 25.9 ESE 13 19 1005.6 - 0.0 - Partly cloudy 10 - - - -
27/04:30pm 26.2 ESE 13 18 1005.5 - 0.0 - Partly cloudy 10 - - - -
27/04:00pm 26.7 ESE 12 19 1005.6 - 0.0 - Cloudy 10 - - - -
27/03:30pm 26.5 ESE 13 17 1005.9 - 0.0 - Partly cloudy 10 - - - -
27/03:00pm 26.9 ESE 14 20 1006.3 - 0.0 - Mostly cloudy 10 - - - -
27/02:30pm 27.1 ESE 15 20 1006.5 - 0.0 - Partly cloudy 10 - - - -
27/02:00pm 26.8 ESE 13 18 1006.8 - 0.0 - Partly cloudy 10 - - - -
27/01:30pm 27.4 SE 14 19 1007.1 - 0.0 - Partly cloudy 10 - - - -
27/01:00pm 28.9 SE 15 22 1007.3 - 0.0 - Partly cloudy 10 - - - -
27/12:30pm 28.4 ESE 15 21 1007.7 - 0.0 - Partly cloudy 10 - - - -
27/12:00pm 27.6 ESE 15 19 1007.9 - 0.0 - Cloudy 10 - - - -
27/11:30am 28.6 SE 13 18 1008.4 - 0.0 - - 10 - - - -
27/11:00am 28.8 ESE 13 17 1008.5 - 0.0 - Partly cloudy 10 - - - -
27/10:30am 27.8 SE 14 18 1008.7 - 0.0 - Partly cloudy 10 - - - -
27/10:00am 27.8 SE 13 17 1008.6 - 0.0 - Partly cloudy 10 - - - -
27/09:30am 28.2 SE 11 15 1008.6 - 0.0 - Partly cloudy 10 - - - -
27/09:00am 27.4 ESE 15 19 1008.5 - 0.6 Recent precip. - 10 - - - -
27/08:30am 27.0 ESE 14 19 1008.5 - 0.6 - Partly cloudy 10 - - - -
27/08:00am 27.5 ESE 13 16 1008.4 - 0.4 - Partly cloudy 10 - - - -
27/07:30am 27.3 ESE 12 16 1008.3 - 0.4 - Partly cloudy 10 - - - -
27/07:00am 26.4 ESE 10 15 1008.3 - 0.4 - Partly cloudy 10 - - - -
27/06:30am 25.8 ESE 8 11 1008.1 - 0.4 - Partly cloudy 10 - - - -
27/06:00am 25.9 ESE 9 12 1007.9 - 0.4 - Cloudy 10 - - - -
27/05:30am 25.2 ESE 9 13 1007.5 - 0.4 - Partly cloudy 10 - - - -
27/05:00am 24.8 ESE 8 9 1007.2 - 0.4 - - 10 - - - -
27/04:30am 25.0 ESE 9 11 1007.0 - 0.4 - Partly cloudy 10 - - - -
27/04:00am 25.1 SE 6 9 1007.0 - 0.4 - Partly cloudy 10 - - - -
27/03:30am 24.4 SE 6 8 1006.8 - 0.4 - - 10 - - - -
27/03:00am 25.0 ESE 9 11 1006.8 - 0.4 - Mostly clear 10 - - - -
27/02:30am 25.0 ESE 7 10 1007.1 - 0.4 - Partly cloudy 10 - - - -
27/02:00am 24.8 SE 5 7 1007.2 - 0.4 - Partly cloudy 10 - - - -
27/01:30am 25.0 SE 8 11 1007.3 - 0.4 - - 10 - - - -
27/01:00am 24.9 SE 7 9 1007.5 - 0.4 - Partly cloudy 10 - - - -
27/12:30am 25.5 ESE 8 12 1008.0 - 0.4 - Partly cloudy 10 - - - -
27/12:00am 25.5 ESE 8 11 1008.1 - 0.4 - Cloudy 10 - - - -
 
Date/Time
EST
Temp

°C
Wind Pressure Rain
since 9am
mm
Weather Cloud Vis
km
Sea
Height
m
Swell
Dir
 
Speed
knots
Gust
knots
hPa Trend Height
m
Period
s
Dir
26/11:30pm 25.5 SE 7 10 1008.7 - 0.4 - Partly cloudy 10 - - - -
26/11:00pm 24.9 S 5 7 1008.9 - 0.4 - Partly cloudy 10 - - - -
26/10:30pm 24.7 SSE 4 5 1008.8 - 0.4 - Partly cloudy 10 - - - -
26/10:00pm 24.7 SSW 5 7 1008.9 - 0.4 - Partly cloudy 10 - - - -
26/09:30pm 24.5 SSW 3 4 1008.8 - 0.4 - Partly cloudy 10 - - - -
26/09:00pm 24.7 SW 4 5 1009.4 - 0.4 Recent precip. Cloudy 10 - - - -
26/08:30pm 24.9 S 4 5 1009.5 - 0.4 - Partly cloudy 10 - - - -
26/08:00pm 25.1 S 4 9 1009.4 - 0.2 - Partly cloudy 10 - - - -
26/07:30pm 25.8 SSE 7 11 1008.8 - 0.2 - Partly cloudy 10 - - - -
26/07:00pm 25.6 SSE 7 11 1008.6 - 0.2 - Partly cloudy 10 - - - -
26/06:30pm 25.5 SSE 11 16 1008.2 - 0.2 - Partly cloudy 10 - - - -
26/06:00pm 25.9 SE 10 15 1007.6 - 0.0 - Mostly cloudy 10 - - - -
26/05:30pm 26.3 SSE 10 14 1007.6 - 0.0 - Partly cloudy 10 - - - -
26/05:00pm 26.7 SSE 12 17 1007.2 - 0.0 - Partly cloudy 10 - - - -
26/04:30pm 26.9 SSE 11 18 1007.0 - 0.0 - Partly cloudy 10 - - - -
26/04:00pm 27.2 SE 11 15 1006.8 - 0.0 - Partly cloudy 10 - - - -
26/03:30pm 27.5 SE 15 19 1006.3 - 0.0 - Partly cloudy 10 - - - -
26/03:00pm 28.0 SE 14 23 1006.3 - 0.0 - Cloudy 10 - - - -
26/02:30pm 28.9 SE 16 20 1005.9 - 0.0 - Partly cloudy 10 - - - -
26/02:00pm 29.6 SE 15 20 1006.2 - 0.0 - Partly cloudy 10 - - - -
26/01:30pm 30.1 SE 15 21 1006.3 - 0.0 - - 10 - - - -
26/01:00pm 29.8 SE 14 19 1006.4 - 0.0 - - 10 - - - -
26/12:30pm 30.9 ESE 12 15 1006.7 - 0.0 - - 10 - - - -
26/12:00pm 31.0 ESE 12 16 1007.0 - 0.0 - Mostly clear 10 - - - -
26/11:30am 30.2 SE 13 16 1007.3 - 0.0 - - 10 - - - -
26/11:00am 30.1 SE 12 17 1007.5 - 0.0 - - 10 - - - -
26/10:30am 30.4 SSE 12 15 1007.6 - 0.0 - - 10 - - - -
26/10:00am 29.8 SE 13 16 1007.7 - 0.0 - - 10 - - - -
26/09:30am 29.5 SSE 10 15 1007.8 - 0.0 - - 10 - - - -
26/09:00am 29.3 SSE 9 13 1007.7 - 8.2 Recent precip. - 10 - - - -
26/08:30am 28.4 SSE 7 9 1007.5 - 8.2 - - 10 - - - -
26/08:00am 27.2 S 6 8 1007.5 - 8.0 - - 10 - - - -
26/07:30am 26.1 S 6 8 1007.4 - 8.0 - - 10 - - - -
26/07:00am 24.3 SSE 8 10 1007.2 - 8.0 - - 10 - - - -
26/06:30am 23.4 SSE 6 8 1006.9 - 8.0 - - 10 - - - -
26/06:00am 22.5 S 3 4 1006.5 - 8.0 - - 10 - - - -
26/05:30am 21.3 SSW 3 4 1006.3 - 8.0 - - 10 - - - -
26/05:00am 21.2 SSW 3 5 1005.9 - 8.0 - - 10 - - - -
26/04:30am 21.5 SW 4 6 1005.7 - 8.0 - - 10 - - - -
26/04:00am 21.3 CALM 0 0 1005.7 - 8.0 - - 10 - - - -
26/03:30am 21.6 WSW 1 3 1005.7 - 8.0 - - 10 - - - -
26/03:00am 21.6 SSE 3 5 1005.5 - 8.0 - Mostly clear 10 - - - -
26/02:30am 21.4 CALM 0 0 1005.3 - 8.0 - - 10 - - - -
26/02:00am 21.7 CALM 0 0 1005.3 - 8.0 - - 10 - - - -
26/01:30am 21.9 SSW 3 4 1005.5 - 8.0 - - 10 - - - -
26/01:00am 21.9 W 4 5 1006.0 - 8.0 - - 10 - - - -
26/12:30am 22.4 SE 1 3 1006.1 - 8.0 - - 10 - - - -
26/12:00am 22.2 W 5 5 1006.3 - 8.0 - Mostly clear 10 - - - -
 
Date/Time
EST
Temp

°C
Wind Pressure Rain
since 9am
mm
Weather Cloud Vis
km
Sea
Height
m
Swell
Dir
 
Speed
knots
Gust
knots
hPa Trend Height
m
Period
s
Dir
25/11:30pm 22.6 CALM 0 0 1006.1 - 8.0 - - 10 - - - -
25/11:00pm 22.6 NNE 3 4 1005.9 - 8.0 - - 10 - - - -
25/10:30pm 22.3 SSW 4 5 1006.2 - 8.0 - - 10 - - - -
25/10:00pm 22.6 SSW 4 6 1005.9 - 8.0 - - 10 - - - -
25/09:30pm 22.7 SSW 5 11 1006.4 - 8.0 - Partly cloudy 10 - - - -
25/09:00pm 23.0 W 7 11 1005.9 - 8.0 Rain Cloudy 10 - - - -
25/08:46pm 23.3 W 6 10 1006.3 - 7.6 - Partly cloudy 10 - - - -
25/08:30pm 23.2 NW 6 12 1005.9 - 7.6 - Partly cloudy 1 - - - -
25/08:14pm 23.6 WSW 16 27 1007.1 - 1.2 - Partly cloudy 6 - - - -
25/08:08pm 25.5 WSW 17 27 1007.2 - 0.0 - Partly cloudy 10 - - - -
25/08:00pm 26.5 SW 13 24 1007.5 - 0.0 - Partly cloudy 10 - - - -
25/07:57pm 27.0 SW 10 23 1007.4 - 0.0 - Partly cloudy 10 - - - -
25/07:30pm 26.6 N 6 8 1005.7 - 0.0 - - 10 - - - -
25/07:00pm 26.7 NNW 7 10 1004.9 - 0.0 - Partly cloudy 10 - - - -
25/06:30pm 27.0 NNW 7 8 1004.4 - 0.0 - Partly cloudy 10 - - - -
25/06:00pm 27.3 N 8 9 1003.6 - 0.0 - - 10 - - - -
25/05:30pm 27.8 N 7 9 1003.4 - 0.0 - - 10 - - - -
25/05:00pm 27.3 N 9 11 1003.2 - 0.0 - - 10 - - - -
25/04:30pm 28.4 N 9 12 1003.4 - 0.0 - - 10 - - - -
25/04:00pm 28.6 N 9 12 1003.3 - 0.0 - - 10 - - - -
25/03:30pm 29.1 N 8 11 1003.3 - 0.0 - - 10 - - - -
25/03:00pm 28.8 NNE 10 13 1003.3 - 0.0 - - 10 - - - -
25/02:30pm 28.8 NE 9 13 1003.5 - 0.0 - - 10 - - - -
25/02:00pm 29.6 NE 10 15 1003.5 - 0.0 - - 10 - - - -
25/01:30pm 29.5 NE 9 12 1003.8 - 0.0 - - 10 - - - -
25/01:00pm 29.3 NE 10 14 1003.8 - 0.0 - - 10 - - - -
25/12:30pm 29.8 NE 11 15 1003.9 - 0.0 - - 10 - - - -
25/12:00pm 30.0 NNE 13 16 1004.0 - 0.0 - - 10 - - - -
25/11:30am 29.8 NNE 12 15 1004.1 - 0.0 - - 10 - - - -
25/11:00am 31.0 N 11 17 1004.5 - 0.0 - - 10 - - - -
25/10:30am 31.4 NNW 10 14 1004.7 - 0.0 - - 10 - - - -
25/10:00am 31.3 N 11 14 1005.0 - 0.0 - - 10 - - - -
25/09:30am 30.0 N 12 17 1005.2 - 0.0 - - 10 - - - -
25/09:00am 29.1 NNW 10 14 1005.4 - 0.0 - - 10 - - - -
25/08:30am 28.4 NW 10 15 1005.9 - 0.0 - - 10 - - - -
25/08:00am 27.7 N 11 15 1006.1 - 0.0 - - 10 - - - -
25/07:30am 27.2 NNW 10 15 1006.1 - 0.0 - - 10 - - - -
25/07:00am 26.4 NW 9 12 1006.2 - 0.0 - - 10 - - - -
25/06:30am 25.6 NNW 8 12 1006.0 - 0.0 - - 10 - - - -
25/06:00am 24.8 NNW 8 11 1005.6 - 0.0 - - 10 - - - -
25/05:30am 24.0 NNW 7 9 1005.7 - 0.0 - Partly cloudy 10 - - - -
25/05:00am 24.0 NW 7 9 1005.4 - 0.0 - Partly cloudy 10 - - - -
25/04:30am 24.5 NW 10 14 1005.4 - 0.0 - Cloudy 10 - - - -
25/04:00am 23.9 NNW 8 11 1005.3 - 0.0 - Cloudy 10 - - - -
25/03:30am 23.8 NNW 5 7 1005.1 - 0.0 - Partly cloudy 10 - - - -
25/03:00am 23.9 NNW 5 8 1005.0 - 0.0 - Cloudy 10 - - - -

Other Formats:

Comma delimited format used in spreadsheet applications
http://www.bom.gov.au/fwo/IDQ60701/IDQ60701.94592.axf

JavaScript Object Notation format (JSON) in row-major order
http://www.bom.gov.au/fwo/IDQ60701/IDQ60701.94592.json